Waupaca, WI

12:54 AM CST on January 23, 2017 (GMT -0600)
Waupaca Municipal | | Change Station
Active Advisory: Special Statement

Elev 827 ft 44.33 °N, 89.02 °W | Updated 19 minutes ago

Overcast
Overcast
38 °F
Feels Like 38 °F
N
0
Wind Variable Wind from North

Today
High -- | Low -- °F
--% Chance of Precip.
Yesterday
High -- | Low -- °F
Precip. -- in
Pressure 29.74 in
Visibility 7.0 miles
Clouds Overcast 1300 ft
Dew Point 36 °F
Humidity 95%
Rainfall 0.00 in
Snow Depth Not available.
7:22 AM 4:53 PM
Waning Crescent, 20% visible
METAR KPCZ 230635Z AUTO 00000KT 7SM OVC013 03/03 A2974 RMK AO2 T00320025
Pressure 29.74 in
Visibility 7.0 miles
Clouds Overcast 1300 ft
Dew Point 36 °F
Humidity 95%
Rainfall 0.00 in
Snow Depth Not available.
7:22 AM 4:53 PM
Waning Crescent, 20% visible
METAR KPCZ 230635Z AUTO 00000KT 7SM OVC013 03/03 A2974 RMK AO2 T00320025

Get Your Daily Forecast Email!

Thanks for signing up!

Be on the lookout for a verification email in your inbox.

You'll start receiving the daily forecast at 8 AM.

×

10-Day Weather Forecast

Almanac

Astronomy

Jan. 23, 2017 Rise Set
Actual Time
Civil Twilight
Nautical Twilight
Astronomical Twilight
Moon
Length of Visible Light
Length of Day
Tomorrow will be .
, % of the Moon is Illuminated

Today's Extremes

State Highs State Lows

Community

WunderPhotos

Upload Photos

1,962,540 photos uploaded!

WunderBlog® & News

Nearby

Air Quality

  Air Quality AQ Index Pollutant
Not available.

Snow Depth

Station Depth Elevation

Earthquake Activity

City Distance Mag. Time & Date
Minimum magnitude displayed is 2.5.

Coastal Water Temperatures

Place Temperature

Stations

Nearby Weather Stations

Station Location Temp. Windchill Dew Point Humidity Wind Precip. Elev Updated Type
                   

Watches & Warnings

Special Statement
Issued: 11:24 PM CST Jan. 22, 2017 – National Weather Service

... Patchy dense fog again tonight across northeast and central
Wisconsin...

Patchy dense fog is expected tonight across parts of northeast
and central Wisconsin. Visibility could drop to one-quarter mile
at times.

Motorist are urged to slow down and use low beam headlights if
dense fog is encountered.



1124 PM CST sun Jan 22 2017

... Patchy dense fog again tonight across northeast and central
Wisconsin...

Patchy dense fog is expected tonight across parts of northeast
and central Wisconsin. Visibility could drop to one-quarter mile
at times.

Motorist are urged to slow down and use low beam headlights if
dense fog is encountered.



1124 PM CST sun Jan 22 2017

... Patchy dense fog again tonight across northeast and central
Wisconsin...

Patchy dense fog is expected tonight across parts of northeast
and central Wisconsin. Visibility could drop to one-quarter mile
at times.

Motorist are urged to slow down and use low beam headlights if
dense fog is encountered.